createdAt,value
2023-05-14T00:02:21.722Z,16.50
2023-05-14T00:04:48.001Z,14.10
2023-05-14T00:07:14.130Z,17.10
2023-05-14T00:09:40.251Z,20.73
2023-05-14T00:12:06.771Z,15.57
2023-05-14T00:14:32.917Z,36.90
2023-05-14T00:16:59.115Z,32.10
2023-05-14T00:19:26.024Z,33.43
2023-05-14T00:21:52.237Z,24.63
2023-05-14T00:24:18.581Z,18.60
2023-05-14T00:26:44.972Z,18.60
2023-05-14T00:29:11.108Z,23.87
2023-05-14T00:31:37.276Z,17.93
2023-05-14T00:34:03.507Z,15.73
2023-05-14T00:36:30.410Z,14.07
2023-05-14T00:38:56.504Z,14.07
2023-05-14T00:41:22.779Z,18.43
2023-05-14T00:43:48.964Z,17.13
2023-05-14T00:46:15.184Z,15.13
2023-05-14T00:48:41.461Z,13.47
2023-05-14T00:51:07.838Z,15.27
2023-05-14T00:53:34.723Z,13.87
2023-05-14T00:56:00.889Z,13.43
2023-05-14T00:58:27.033Z,18.47
2023-05-14T01:00:53.207Z,17.43
2023-05-14T01:03:19.397Z,17.17
2023-05-14T01:06:06.300Z,14.77
2023-05-14T01:08:40.010Z,15.83
2023-05-14T01:11:08.025Z,16.20
2023-05-14T01:13:43.904Z,15.27
2023-05-14T01:16:12.351Z,19.33
2023-05-14T01:18:40.327Z,15.13
2023-05-14T01:21:18.724Z,15.50
2023-05-14T01:23:45.539Z,14.60
2023-05-14T01:26:11.654Z,14.30
2023-05-14T01:28:38.220Z,16.57
2023-05-14T01:31:07.849Z,16.20
2023-05-14T01:33:34.927Z,14.00
2023-05-14T01:36:01.505Z,19.87
2023-05-14T01:38:29.976Z,15.67
2023-05-14T01:40:57.182Z,15.67
2023-05-14T01:43:23.624Z,26.57
2023-05-14T01:45:49.912Z,18.40
2023-05-14T01:48:16.097Z,15.73
2023-05-14T01:50:42.227Z,16.20
2023-05-14T01:53:08.334Z,16.30
2023-05-14T01:55:34.494Z,19.30
2023-05-14T01:58:01.357Z,20.50
2023-05-14T02:00:27.486Z,18.50
2023-05-14T02:02:53.928Z,19.57
2023-05-14T02:05:20.810Z,16.87
2023-05-14T02:07:46.958Z,22.77
2023-05-14T02:10:13.236Z,15.50
2023-05-14T02:12:39.410Z,18.70
2023-05-14T02:15:10.051Z,15.33
2023-05-14T02:17:36.458Z,18.80
2023-05-14T02:20:03.654Z,15.60
2023-05-14T02:22:29.786Z,14.17
2023-05-14T02:24:55.887Z,13.27
2023-05-14T02:27:21.997Z,15.13
2023-05-14T02:29:48.124Z,17.20
2023-05-14T02:32:14.932Z,12.73
2023-05-14T02:34:41.123Z,13.67
2023-05-14T02:37:07.234Z,13.73
2023-05-14T02:39:33.346Z,12.83
2023-05-14T02:41:59.492Z,14.20
2023-05-14T02:44:25.590Z,17.50
2023-05-14T02:46:51.745Z,15.17
2023-05-14T02:49:18.512Z,16.17
2023-05-14T02:51:44.640Z,18.10
2023-05-14T02:54:10.755Z,14.17
2023-05-14T02:56:36.867Z,13.90
2023-05-14T02:59:03.382Z,14.77
2023-05-14T03:01:29.883Z,13.03
2023-05-14T03:03:56.610Z,17.10
2023-05-14T03:06:23.344Z,16.23
2023-05-14T03:08:49.789Z,13.13
2023-05-14T03:11:15.887Z,15.97
2023-05-14T03:13:42.008Z,18.70
2023-05-14T03:16:08.158Z,17.30
2023-05-14T03:18:35.756Z,14.73
2023-05-14T03:21:03.011Z,16.90
2023-05-14T03:23:31.161Z,13.47
2023-05-14T03:25:57.337Z,15.93
2023-05-14T03:28:23.455Z,13.07
2023-05-14T03:30:49.585Z,12.93
2023-05-14T03:33:15.822Z,17.37
2023-05-14T03:35:41.928Z,10.67
2023-05-14T03:38:08.126Z,16.87
2023-05-14T03:40:34.895Z,13.33
2023-05-14T03:43:01.038Z,16.60
2023-05-14T03:45:27.917Z,15.20
2023-05-14T03:47:54.194Z,13.60
2023-05-14T03:50:20.344Z,11.90
2023-05-14T03:52:46.487Z,14.83
2023-05-14T03:55:12.636Z,15.33
2023-05-14T03:57:40.049Z,15.17
2023-05-14T04:00:07.320Z,15.93
2023-05-14T04:02:33.543Z,16.47
2023-05-14T04:04:59.864Z,12.47
2023-05-14T04:07:25.993Z,14.17
2023-05-14T04:09:52.136Z,13.53
2023-05-14T04:12:18.339Z,11.73
2023-05-14T04:14:45.093Z,11.43
2023-05-14T04:17:11.193Z,14.10
2023-05-14T04:19:38.442Z,18.23
2023-05-14T04:22:04.549Z,15.70
2023-05-14T04:24:30.674Z,12.70
2023-05-14T04:26:56.798Z,13.77
2023-05-14T04:29:22.953Z,13.47
2023-05-14T04:31:49.830Z,16.13
2023-05-14T04:34:16.049Z,14.83
2023-05-14T04:36:42.174Z,13.53
2023-05-14T04:39:09.150Z,13.87
2023-05-14T04:41:35.910Z,18.33
2023-05-14T04:44:03.049Z,11.90
2023-05-14T04:46:29.248Z,16.20
2023-05-14T04:48:56.132Z,14.97
2023-05-14T04:51:22.320Z,12.27
2023-05-14T04:53:48.426Z,14.70
2023-05-14T04:56:14.575Z,13.47
2023-05-14T04:58:40.704Z,16.93
2023-05-14T05:01:06.898Z,15.33
2023-05-14T05:03:33.103Z,15.93
2023-05-14T05:05:59.899Z,12.93
2023-05-14T05:08:26.192Z,14.63
2023-05-14T05:10:52.345Z,14.33
2023-05-14T05:13:18.483Z,17.13
2023-05-14T05:15:45.061Z,16.53
2023-05-14T05:18:11.171Z,16.07
2023-05-14T05:20:37.430Z,12.87
2023-05-14T05:23:04.206Z,12.27
2023-05-14T05:25:30.376Z,11.30
2023-05-14T05:27:56.496Z,11.80
2023-05-14T05:30:22.869Z,12.90
2023-05-14T05:32:49.271Z,13.60
2023-05-14T05:35:15.509Z,11.80
2023-05-14T05:37:42.218Z,12.30
2023-05-14T05:40:09.787Z,12.10
2023-05-14T05:42:35.919Z,17.00
2023-05-14T05:45:02.097Z,12.57
2023-05-14T05:47:29.387Z,12.03
2023-05-14T05:49:55.538Z,14.63
2023-05-14T05:52:21.872Z,12.37
2023-05-14T05:54:47.986Z,12.27
2023-05-14T05:57:14.906Z,10.53
2023-05-14T05:59:41.015Z,11.07
2023-05-14T06:02:07.250Z,13.60
2023-05-14T06:04:33.398Z,12.03
2023-05-14T06:06:59.536Z,14.80
2023-05-14T06:09:25.710Z,11.77
2023-05-14T06:11:51.815Z,12.00
2023-05-14T06:14:18.549Z,15.53
2023-05-14T06:16:44.737Z,10.73
2023-05-14T06:19:11.003Z,10.03
2023-05-14T06:21:37.466Z,14.73
2023-05-14T06:24:04.077Z,13.13
2023-05-14T06:26:30.251Z,16.73
2023-05-14T06:28:56.365Z,14.40
2023-05-14T06:31:23.166Z,10.33
2023-05-14T06:33:49.262Z,9.30
2023-05-14T06:36:15.411Z,9.63
2023-05-14T06:38:41.547Z,11.87
2023-05-14T06:41:07.832Z,12.30
2023-05-14T06:43:34.025Z,15.77
2023-05-14T06:46:00.583Z,14.47
2023-05-14T06:48:28.582Z,13.63
2023-05-14T06:50:54.971Z,12.80
2023-05-14T06:53:21.094Z,11.67
2023-05-14T06:55:47.357Z,21.03
2023-05-14T06:58:13.596Z,14.00
2023-05-14T07:00:39.769Z,13.80
2023-05-14T07:03:06.141Z,11.03
2023-05-14T07:05:33.103Z,13.83
2023-05-14T07:07:59.284Z,13.13
2023-05-14T07:10:25.673Z,15.33
2023-05-14T07:12:52.067Z,13.13
2023-05-14T07:15:18.363Z,17.40
2023-05-14T07:17:44.542Z,14.47
2023-05-14T07:20:11.705Z,14.47
2023-05-14T07:22:38.564Z,20.07
2023-05-14T07:25:05.501Z,14.93
2023-05-14T07:27:31.642Z,17.77
2023-05-14T07:29:57.767Z,17.63
2023-05-14T07:32:24.672Z,17.43
2023-05-14T07:34:50.969Z,20.00
2023-05-14T07:37:17.093Z,18.87
2023-05-14T07:39:43.922Z,17.93
2023-05-14T07:42:10.033Z,16.27
2023-05-14T07:44:36.184Z,18.63
2023-05-14T07:47:03.381Z,14.80
2023-05-14T07:49:29.560Z,17.47
2023-05-14T07:51:55.952Z,17.27
2023-05-14T07:54:22.062Z,14.70
2023-05-14T07:56:48.999Z,14.57
2023-05-14T07:59:15.122Z,14.77
2023-05-14T08:01:41.514Z,21.83
2023-05-14T08:04:08.148Z,16.37
2023-05-14T08:06:34.798Z,16.23
2023-05-14T08:09:01.031Z,20.37
2023-05-14T08:11:27.429Z,15.17
2023-05-14T08:13:54.192Z,16.23
2023-05-14T08:16:20.534Z,16.67
2023-05-14T08:18:46.705Z,13.90
2023-05-14T08:21:12.878Z,16.47
2023-05-14T08:23:39.096Z,19.30
2023-05-14T08:26:05.384Z,22.20
2023-05-14T08:28:31.525Z,15.57
2023-05-14T08:30:58.320Z,13.63
2023-05-14T08:33:24.595Z,16.00
2023-05-14T08:35:52.478Z,16.70
2023-05-14T08:38:18.649Z,14.57
2023-05-14T08:40:47.533Z,14.93
2023-05-14T08:43:16.412Z,18.17
2023-05-14T08:45:43.451Z,10.93
2023-05-14T08:48:13.169Z,14.07
2023-05-14T08:50:39.484Z,13.17
2023-05-14T08:53:05.661Z,12.73
2023-05-14T08:55:33.313Z,13.77
2023-05-14T08:57:59.473Z,21.37
2023-05-14T09:00:26.546Z,14.80
2023-05-14T09:02:53.096Z,13.83
2023-05-14T09:05:20.563Z,15.23
2023-05-14T09:07:46.764Z,14.43
2023-05-14T09:10:14.563Z,18.00
2023-05-14T09:12:40.792Z,21.07
2023-05-14T09:15:07.806Z,11.07
2023-05-14T09:17:34.313Z,11.90
2023-05-14T09:20:00.966Z,11.43
2023-05-14T09:22:31.005Z,13.47
2023-05-14T09:25:04.746Z,11.23
2023-05-14T09:27:31.972Z,13.57
2023-05-14T09:30:04.787Z,11.37
2023-05-14T09:32:35.315Z,9.97
2023-05-14T09:35:09.381Z,12.27
2023-05-14T09:37:36.569Z,20.33
2023-05-14T09:40:06.192Z,7.13
2023-05-14T09:42:32.508Z,10.77
2023-05-14T09:44:58.732Z,15.07
2023-05-14T09:47:25.019Z,13.07
2023-05-14T09:49:52.127Z,13.57
2023-05-14T09:52:18.507Z,11.27
2023-05-14T09:54:46.074Z,13.83
2023-05-14T09:57:12.384Z,6.37
2023-05-14T09:59:38.531Z,11.03
2023-05-14T10:02:05.574Z,9.97
2023-05-14T10:04:32.430Z,7.13
2023-05-14T10:06:59.871Z,9.27
2023-05-14T10:09:27.618Z,8.67
2023-05-14T10:11:58.251Z,5.50
2023-05-14T10:14:27.153Z,4.47
2023-05-14T10:16:53.769Z,3.50
2023-05-14T10:19:21.227Z,3.63
2023-05-14T10:21:48.428Z,7.30
2023-05-14T10:24:15.037Z,3.93
2023-05-14T10:26:41.371Z,5.47
2023-05-14T10:29:09.350Z,4.83
2023-05-14T10:31:46.357Z,5.03
2023-05-14T10:34:36.480Z,3.97
2023-05-14T10:37:03.688Z,3.20
2023-05-14T10:39:48.658Z,3.50
2023-05-14T10:42:17.229Z,3.30
2023-05-14T10:44:51.503Z,6.57
2023-05-14T10:47:18.052Z,4.70
2023-05-14T10:49:48.223Z,7.23
2023-05-14T10:52:17.229Z,3.30
2023-05-14T10:54:48.343Z,6.73
2023-05-14T10:57:14.589Z,11.00
2023-05-14T10:59:42.043Z,3.60
2023-05-14T11:02:19.473Z,4.10
2023-05-14T11:04:55.525Z,2.80
2023-05-14T11:07:24.665Z,2.77
2023-05-14T11:09:51.107Z,2.93
2023-05-14T11:12:20.942Z,5.17
2023-05-14T11:14:49.722Z,2.83
2023-05-14T11:17:16.653Z,4.03
2023-05-14T11:19:44.128Z,3.13
2023-05-14T11:22:12.951Z,3.73
2023-05-14T11:24:39.707Z,6.00
2023-05-14T11:27:07.227Z,3.23
2023-05-14T11:29:33.478Z,3.03
2023-05-14T11:32:00.029Z,6.03
2023-05-14T11:34:27.248Z,3.60
2023-05-14T11:36:53.400Z,2.70
2023-05-14T11:39:22.415Z,3.97
2023-05-14T11:41:48.711Z,3.93
2023-05-14T11:44:14.958Z,5.87
2023-05-14T11:46:41.259Z,4.03
2023-05-14T11:49:07.514Z,4.00
2023-05-14T11:51:35.907Z,5.07
2023-05-14T11:54:03.219Z,6.60
2023-05-14T11:56:29.559Z,4.40
2023-05-14T11:58:56.755Z,5.70
2023-05-14T12:01:22.962Z,3.47
2023-05-14T12:03:52.614Z,2.73
2023-05-14T12:06:18.955Z,11.43
2023-05-14T12:08:47.867Z,6.97
2023-05-14T12:11:14.074Z,3.03
2023-05-14T12:13:40.252Z,5.40
2023-05-14T12:16:06.972Z,2.77
2023-05-14T12:18:33.625Z,2.63
2023-05-14T12:21:02.553Z,2.57
2023-05-14T12:23:30.107Z,5.30
2023-05-14T12:26:02.504Z,2.83
2023-05-14T12:28:28.749Z,3.57
2023-05-14T12:30:58.297Z,4.87
2023-05-14T12:33:26.045Z,5.00
2023-05-14T12:35:57.618Z,2.93
2023-05-14T12:38:25.078Z,4.40
2023-05-14T12:40:51.274Z,4.47
2023-05-14T12:43:18.177Z,5.33
2023-05-14T12:45:44.409Z,2.77
2023-05-14T12:48:12.351Z,4.63
2023-05-14T12:50:38.886Z,9.27
2023-05-14T12:53:05.337Z,3.03
2023-05-14T12:55:33.428Z,3.77
2023-05-14T12:57:59.638Z,10.13
2023-05-14T13:00:26.814Z,2.67
2023-05-14T13:02:53.178Z,3.10
2023-05-14T13:05:19.660Z,6.13
2023-05-14T13:07:45.860Z,6.17
2023-05-14T13:10:12.706Z,4.30
2023-05-14T13:12:39.118Z,5.97
2023-05-14T13:15:06.323Z,2.97
2023-05-14T13:17:33.342Z,6.70
2023-05-14T13:19:59.555Z,3.53
2023-05-14T13:22:25.801Z,4.30
2023-05-14T13:24:52.113Z,2.60
2023-05-14T13:27:18.274Z,2.33
2023-05-14T13:29:44.554Z,3.97
2023-05-14T13:32:10.888Z,4.40
2023-05-14T13:34:37.713Z,2.63
2023-05-14T13:37:04.327Z,2.70
2023-05-14T13:39:30.482Z,3.57
2023-05-14T13:41:56.982Z,9.00
2023-05-14T13:44:23.280Z,3.47
2023-05-14T13:46:49.650Z,4.50
2023-05-14T13:49:16.014Z,7.40
2023-05-14T13:51:43.253Z,2.73
2023-05-14T13:54:09.781Z,2.40
2023-05-14T13:56:36.501Z,6.47
2023-05-14T13:59:02.897Z,5.27
2023-05-14T14:01:30.232Z,2.70
2023-05-14T14:03:58.538Z,3.63
2023-05-14T14:06:26.523Z,7.30
2023-05-14T14:08:53.573Z,3.43
2023-05-14T14:11:19.909Z,6.37
2023-05-14T14:13:46.868Z,3.50
2023-05-14T14:16:13.217Z,9.27
2023-05-14T14:18:39.640Z,2.60
2023-05-14T14:21:05.914Z,2.50
2023-05-14T14:23:32.091Z,3.73
2023-05-14T14:25:59.787Z,2.97
2023-05-14T14:28:26.028Z,3.10
2023-05-14T14:30:52.440Z,3.37
2023-05-14T14:33:18.650Z,3.00
2023-05-14T14:35:45.560Z,5.73
2023-05-14T14:38:11.768Z,2.50
2023-05-14T14:40:38.097Z,5.33
2023-05-14T14:43:05.170Z,3.27
2023-05-14T14:45:31.362Z,3.07
2023-05-14T14:48:22.369Z,3.53
2023-05-14T14:50:48.666Z,4.97
2023-05-14T14:53:14.938Z,3.63
2023-05-14T14:55:41.113Z,2.77
2023-05-14T14:58:08.075Z,4.53
2023-05-14T15:00:34.376Z,3.13
2023-05-14T15:03:00.655Z,2.47
2023-05-14T15:05:27.058Z,2.27
2023-05-14T15:07:53.809Z,4.13
2023-05-14T15:10:19.986Z,2.20
2023-05-14T15:12:46.415Z,5.80
2023-05-14T15:15:13.364Z,2.70
2023-05-14T15:17:39.633Z,2.87
2023-05-14T15:20:08.221Z,2.70
2023-05-14T15:22:34.467Z,5.17
2023-05-14T15:25:00.677Z,2.13
2023-05-14T15:27:27.005Z,2.87
2023-05-14T15:29:53.262Z,4.83
2023-05-14T15:32:20.138Z,3.60
2023-05-14T15:34:46.360Z,2.27
2023-05-14T15:37:12.561Z,2.53
2023-05-14T15:39:38.898Z,3.73
2023-05-14T15:42:05.741Z,2.43
2023-05-14T15:44:32.004Z,2.83
2023-05-14T15:46:58.278Z,2.50
2023-05-14T15:49:25.295Z,2.40
2023-05-14T15:51:51.586Z,2.70
2023-05-14T15:54:17.989Z,3.37
2023-05-14T15:56:44.398Z,2.30
2023-05-14T15:59:10.590Z,2.20
2023-05-14T16:01:36.876Z,4.53
2023-05-14T16:04:03.485Z,2.37
2023-05-14T16:06:30.618Z,2.20
2023-05-14T16:08:56.825Z,4.03
2023-05-14T16:11:23.103Z,8.90
2023-05-14T16:13:49.487Z,2.97
2023-05-14T16:16:15.878Z,2.53
2023-05-14T16:18:42.475Z,2.83
2023-05-14T16:21:08.649Z,2.33
2023-05-14T16:23:35.614Z,4.50
2023-05-14T16:26:01.798Z,2.60
2023-05-14T16:28:28.055Z,3.03
2023-05-14T16:30:54.367Z,3.27
2023-05-14T16:33:20.542Z,2.80
2023-05-14T16:35:46.715Z,2.83
2023-05-14T16:38:13.166Z,7.30
2023-05-14T16:40:40.980Z,2.73
2023-05-14T16:43:07.319Z,5.23
2023-05-14T16:45:36.090Z,2.60
2023-05-14T16:48:02.600Z,2.43
2023-05-14T16:50:28.867Z,3.33
2023-05-14T16:52:55.198Z,2.20
2023-05-14T16:55:21.569Z,2.27
2023-05-14T16:57:48.583Z,2.67
2023-05-14T17:00:15.722Z,2.33
2023-05-14T17:02:41.981Z,3.07
2023-05-14T17:05:09.167Z,2.30
2023-05-14T17:07:36.860Z,2.37
2023-05-14T17:10:03.522Z,4.53
2023-05-14T17:12:29.824Z,3.53
2023-05-14T17:14:56.638Z,3.73
2023-05-14T17:17:23.080Z,3.37
2023-05-14T17:19:49.280Z,3.13
2023-05-14T17:22:15.575Z,5.13
2023-05-14T17:24:41.809Z,3.63
2023-05-14T17:27:09.097Z,5.00
2023-05-14T17:29:35.313Z,6.33
2023-05-14T17:32:02.942Z,7.53
2023-05-14T17:34:29.190Z,5.00
2023-05-14T17:36:55.376Z,6.07
2023-05-14T17:39:21.531Z,6.07
2023-05-14T17:41:47.683Z,6.00
2023-05-14T17:44:13.871Z,5.97
2023-05-14T17:46:41.705Z,4.90
2023-05-14T17:49:08.793Z,8.70
2023-05-14T17:51:35.094Z,8.47
2023-05-14T17:54:01.585Z,6.23
2023-05-14T17:56:27.769Z,6.00
2023-05-14T17:58:53.951Z,7.07
2023-05-14T18:01:20.219Z,5.93
2023-05-14T18:03:46.746Z,3.83
2023-05-14T18:06:14.303Z,6.23
2023-05-14T18:08:41.021Z,3.70
2023-05-14T18:11:07.938Z,6.30
2023-05-14T18:13:34.691Z,6.00
2023-05-14T18:16:01.514Z,6.87
2023-05-14T18:18:28.230Z,5.63
2023-05-14T18:20:54.944Z,2.87
2023-05-14T18:23:22.020Z,7.83
2023-05-14T18:25:48.289Z,3.20
2023-05-14T18:28:14.799Z,3.67
2023-05-14T18:30:41.253Z,2.60
2023-05-14T18:33:08.069Z,4.00
2023-05-14T18:35:34.786Z,3.33
2023-05-14T18:38:02.015Z,5.07
2023-05-14T18:40:29.061Z,3.60
2023-05-14T18:42:57.281Z,2.87
2023-05-14T18:45:23.970Z,4.33
2023-05-14T18:47:50.621Z,3.03
2023-05-14T18:50:20.672Z,3.53
2023-05-14T18:52:46.937Z,3.50
2023-05-14T18:55:13.135Z,3.43
2023-05-14T18:57:40.002Z,4.43
2023-05-14T19:00:07.651Z,6.43
2023-05-14T19:02:34.087Z,4.67
2023-05-14T19:05:00.512Z,6.07
2023-05-14T19:07:26.914Z,4.93
2023-05-14T19:09:53.182Z,7.30
2023-05-14T19:12:19.366Z,9.53
2023-05-14T19:14:46.140Z,6.70
2023-05-14T19:17:12.391Z,7.27
2023-05-14T19:19:38.819Z,6.10
2023-05-14T19:22:05.943Z,8.60
2023-05-14T19:24:32.172Z,5.23
2023-05-14T19:26:58.337Z,7.40
2023-05-14T19:29:24.635Z,5.27
2023-05-14T19:31:51.840Z,6.63
2023-05-14T19:34:18.557Z,9.73
2023-05-14T19:36:45.185Z,5.67
2023-05-14T19:39:11.561Z,6.97
2023-05-14T19:41:37.791Z,4.80
2023-05-14T19:44:04.141Z,7.13
2023-05-14T19:46:30.539Z,5.27
2023-05-14T19:48:57.724Z,4.93
2023-05-14T19:51:24.759Z,6.97
2023-05-14T19:53:51.105Z,4.80
2023-05-14T19:56:18.053Z,5.50
2023-05-14T19:58:44.473Z,6.27
2023-05-14T20:01:11.447Z,11.50
2023-05-14T20:03:37.708Z,9.73
2023-05-14T20:06:05.302Z,9.37
2023-05-14T20:08:31.670Z,5.70
2023-05-14T20:10:58.130Z,6.60
2023-05-14T20:13:25.267Z,5.47
2023-05-14T20:15:52.136Z,5.53
2023-05-14T20:18:18.689Z,5.47
2023-05-14T20:20:44.973Z,5.30
2023-05-14T20:23:11.860Z,9.37
2023-05-14T20:25:38.076Z,9.07
2023-05-14T20:28:04.402Z,4.90
2023-05-14T20:30:31.195Z,5.80
2023-05-14T20:32:57.809Z,8.97
2023-05-14T20:35:24.206Z,7.00
2023-05-14T20:37:50.704Z,5.87
2023-05-14T20:40:17.603Z,6.30
2023-05-14T20:42:43.968Z,12.03
2023-05-14T20:45:10.866Z,5.60
2023-05-14T20:47:37.073Z,5.00
2023-05-14T20:50:03.911Z,5.43
2023-05-14T20:52:30.060Z,7.70
2023-05-14T20:54:56.831Z,8.03
2023-05-14T20:57:24.881Z,5.37
2023-05-14T20:59:51.122Z,7.47
2023-05-14T21:02:17.510Z,6.23
2023-05-14T21:04:43.979Z,6.40
2023-05-14T21:07:10.298Z,6.10
2023-05-14T21:09:37.184Z,6.87
2023-05-14T21:12:03.904Z,7.10
2023-05-14T21:14:30.823Z,7.00
2023-05-14T21:16:57.164Z,7.57
2023-05-14T21:19:23.631Z,8.93
2023-05-14T21:21:49.927Z,11.07
2023-05-14T21:24:16.199Z,7.60
2023-05-14T21:26:42.651Z,9.57
2023-05-14T21:29:08.902Z,7.70
2023-05-14T21:31:35.899Z,8.40
2023-05-14T21:34:02.154Z,10.43
2023-05-14T21:36:28.588Z,8.33
2023-05-14T21:38:54.918Z,7.70
2023-05-14T21:41:21.203Z,9.07
2023-05-14T21:43:47.417Z,7.20
2023-05-14T21:46:13.573Z,8.07
2023-05-14T21:48:40.652Z,7.60
2023-05-14T21:51:07.066Z,8.07
2023-05-14T21:53:33.941Z,12.10
2023-05-14T21:56:00.213Z,8.07
2023-05-14T21:58:26.713Z,9.33
2023-05-14T22:00:52.964Z,7.30
2023-05-14T22:03:19.337Z,10.93
2023-05-14T22:05:46.455Z,9.53
2023-05-14T22:08:12.662Z,11.23
2023-05-14T22:10:38.795Z,9.93
2023-05-14T22:13:04.969Z,10.60
2023-05-14T22:15:31.265Z,8.70
2023-05-14T22:17:57.659Z,7.97
2023-05-14T22:20:23.976Z,8.00
2023-05-14T22:22:51.077Z,7.77
2023-05-14T22:25:17.426Z,7.43
2023-05-14T22:27:43.667Z,7.60
2023-05-14T22:30:10.632Z,8.87
2023-05-14T22:32:36.971Z,11.30
2023-05-14T22:35:03.662Z,9.73
2023-05-14T22:37:30.051Z,7.33
2023-05-14T22:39:56.926Z,7.53
2023-05-14T22:42:23.157Z,10.13
2023-05-14T22:44:49.336Z,7.80
2023-05-14T22:47:15.688Z,7.30
2023-05-14T22:49:42.875Z,7.13
2023-05-14T22:52:09.215Z,7.40
2023-05-14T22:54:35.845Z,7.63
2023-05-14T22:57:02.788Z,8.80
2023-05-14T22:59:29.130Z,8.47
2023-05-14T23:01:55.447Z,7.40
2023-05-14T23:04:21.818Z,10.10
2023-05-14T23:06:48.077Z,7.57
2023-05-14T23:09:14.234Z,7.30
2023-05-14T23:11:40.442Z,7.17
2023-05-14T23:14:07.742Z,12.13
2023-05-14T23:16:34.034Z,8.37
2023-05-14T23:19:00.331Z,10.93
2023-05-14T23:21:26.642Z,9.03
2023-05-14T23:23:52.912Z,13.77
2023-05-14T23:26:19.120Z,7.70
2023-05-14T23:28:46.499Z,9.77
2023-05-14T23:31:13.349Z,8.73
2023-05-14T23:33:39.552Z,11.10
2023-05-14T23:36:06.766Z,9.63
2023-05-14T23:38:33.131Z,13.33
2023-05-14T23:40:59.302Z,10.23
2023-05-14T23:43:25.633Z,11.97
2023-05-14T23:45:51.926Z,9.07
2023-05-14T23:48:18.797Z,9.33
2023-05-14T23:50:45.195Z,10.40
2023-05-14T23:53:11.381Z,8.43
2023-05-14T23:55:37.608Z,11.87
2023-05-14T23:58:04.131Z,15.83
